Accueil
METAR-TAF:

METAR-TAF

Aéroports :

Provo Municipal Airport

Provo, Utah, États-Unis

latitude: 40-13N, longitude: 111-43W, altitude: 1369 m

Observation

Le bulletin a été fait il y a 1 heure et 4 minutes, à 04:56 UTC
Vent 8 kt de ouest
Température 7°C
Humidité 87%
Pression 1028 hPa
Visibilité: 16.1 km
Ciel clair

METAR: KPVU 280456Z AUTO 26008KT 10SM CLR 07/05 A3035 RMK AO2 SLP270 T00720050

Heure: 00:00 (06:00 UTC)

Prévision

Le bulletin a été fait il y a 40 minutes, à 05:20 UTC
Prévision valable du 28 à 06 UTC au 29 à 06 UTC
Vent 4 kt de direction variable
Visibilité: 10 km
Quelques nuages à une hauteur de 7000 ft
A partir de 28 à 1400 UTC
Vent 6 kt de sud-est
Visibilité: 10 km
Ciel clair
A partir de 29 à 0000 UTC
Vent 5 kt de nord/nord-ouest
Visibilité: 10 km
Ciel clair

TAF: KPVU 280520Z 2806/2906 VRB04KT P6SM FEW070 FM281400 14006KT P6SM SKC FM290000 33005KT P6SM SKC

Observations et prévisions météorologiques de plus de 4000 aéroports (messages METAR et TAF).

Les stations disponibles sont représentées par des disques jaunes et rouges sur la carte.

Passer la souris dessus pour voir le nom de la station.

Cliquer dessus pour voir les observations et prévisions météorologiques.

Pour changer de carte: cliquez sur les boutons verts avec une croix noire pour zoomer, sur le bouton vert avec un tiret pour effectuer un zoom arrière, ou sur les flèches vertes pour les cartes adjacentes.


METAR-TAF: